Time;durP1;ratioP1;P1;durP2;ratioP2;P2;SDS_P1;SDS_P2;PMS_P1;PMS_P2;Temp;Humidity;BMP_temperature;BMP_pressure;BME280_temperature;BME280_humidity;BME280_pressure;Samples;Min_cycle;Max_cycle;Signal;HPM_P1;HPM_P2
2023/07/06 00:01:48;;;;;;;4.65;3.05;;;;;;;20.56;57.33;101506.84;5007291;28;20447;-48
2023/07/06 00:04:14;;;;;;;4.70;2.72;;;;;;;20.55;57.21;101506.00;5006617;28;20070;-52
2023/07/06 00:06:40;;;;;;;3.70;2.80;;;;;;;20.56;57.43;101505.00;5003638;28;20037;-49
2023/07/06 00:09:06;;;;;;;6.43;3.17;;;;;;;20.55;57.69;101507.84;5005925;28;20125;-50
2023/07/06 00:11:38;;;;;;;4.57;2.70;;;;;;;20.55;57.63;101515.97;5005489;28;20045;-50
2023/07/06 00:14:07;;;;;;;5.22;2.83;;;;;;;20.54;57.22;101501.56;5004262;28;20571;-50
2023/07/06 00:16:33;;;;;;;3.63;2.85;;;;;;;20.54;57.54;101515.09;5004671;28;20026;-50
2023/07/06 00:18:58;;;;;;;4.13;2.75;;;;;;;20.54;57.58;101503.44;5012338;28;20038;-49
2023/07/06 00:21:31;;;;;;;4.68;2.90;;;;;;;20.53;57.17;101518.81;5008273;28;20057;-50
2023/07/06 00:23:57;;;;;;;4.25;2.70;;;;;;;20.53;57.47;101513.41;5009475;28;20033;-49
2023/07/06 00:26:22;;;;;;;3.10;2.78;;;;;;;20.52;57.20;101508.97;5003236;28;20030;-51
2023/07/06 00:28:48;;;;;;;2.83;2.42;;;;;;;20.53;57.37;101512.56;5003020;28;20022;-49
2023/07/06 00:31:21;;;;;;;4.05;2.60;;;;;;;20.51;57.10;101504.59;5004073;28;20088;-49
2023/07/06 00:33:52;;;;;;;3.97;2.63;;;;;;;20.51;57.53;101504.59;5005066;28;20057;-51
2023/07/06 00:36:17;;;;;;;3.83;2.60;;;;;;;20.51;57.14;101510.84;5004498;28;20046;-51
2023/07/06 00:38:43;;;;;;;3.58;2.55;;;;;;;20.51;57.02;101510.00;5003939;28;20085;-51
2023/07/06 00:41:08;;;;;;;3.15;2.08;;;;;;;20.49;57.39;101512.84;5011967;28;20503;-50
2023/07/06 00:44:26;;;;;;;3.92;2.50;;;;;;;20.54;56.98;101514.25;5000538;28;20027;-51
2023/07/06 00:46:51;;;;;;;3.20;2.40;;;;;;;20.51;57.05;101521.66;4999665;28;20053;-51
2023/07/06 00:49:17;;;;;;;4.30;2.63;;;;;;;20.49;57.03;101517.41;5005115;28;20042;-50
2023/07/06 00:51:44;;;;;;;4.00;2.42;;;;;;;20.48;56.98;101508.41;5005664;28;20508;-51
2023/07/06 00:54:16;;;;;;;4.32;2.22;;;;;;;20.47;57.20;101506.72;5009317;28;20133;-49
2023/07/06 00:56:46;;;;;;;3.90;2.30;;;;;;;20.48;57.27;101515.69;5002812;28;20109;-50
2023/07/06 00:59:19;;;;;;;5.13;2.25;;;;;;;20.46;57.26;101513.13;5006225;28;20155;-48
2023/07/06 01:01:46;;;;;;;3.72;2.55;;;;;;;20.46;57.15;101506.88;5006425;28;20034;-50
2023/07/06 01:04:15;;;;;;;4.10;2.42;;;;;;;20.46;56.76;101506.88;5004994;28;20098;-48
2023/07/06 01:06:48;;;;;;;4.57;2.90;;;;;;;20.45;56.69;101507.88;5001083;28;20045;-48
2023/07/06 01:09:15;;;;;;;;;;;;;;;20.56;56.59;101509.53;5004598;28;20384;-50
2023/07/06 01:11:44;;;;;;;4.18;2.45;;;;;;;20.48;56.68;101507.56;5003377;28;19921;-51
2023/07/06 01:14:12;;;;;;;4.20;2.13;;;;;;;20.47;57.01;101516.69;5011245;28;20034;-49
2023/07/06 01:16:53;;;;;;;4.28;2.50;;;;;;;20.45;56.95;101514.13;5007057;28;20037;-50
2023/07/06 01:19:20;;;;;;;4.25;2.50;;;;;;;20.45;56.50;101518.69;5005905;28;20460;-47
2023/07/06 01:21:56;;;;;;;5.03;2.38;;;;;;;20.43;56.69;101515.28;5001451;28;20030;-48
2023/07/06 01:24:44;;;;;;;4.70;2.30;;;;;;;20.45;57.00;101516.00;5005417;28;20030;-46
2023/07/06 01:27:48;;;;;;;2.63;2.20;;;;;;;20.43;56.71;101518.84;5007032;28;20021;-51
2023/07/06 01:30:34;;;;;;;2.47;1.90;;;;;;;20.46;56.97;101517.69;5004403;28;20150;-50
2023/07/06 01:33:07;;;;;;;4.88;2.00;;;;;;;20.42;56.95;101522.53;5010879;28;20476;-52
2023/07/06 01:35:50;;;;;;;2.80;1.88;;;;;;;20.42;56.64;101510.88;5009155;28;20057;-49
2023/07/06 01:38:16;;;;;;;3.05;1.85;;;;;;;20.40;56.63;101511.00;5006399;28;20625;-51
2023/07/06 01:40:42;;;;;;;3.35;1.73;;;;;;;20.41;56.59;101514.56;5009342;28;20022;-50
2023/07/06 01:43:07;;;;;;;2.65;1.88;;;;;;;20.39;56.57;101506.63;5009364;28;20029;-51
2023/07/06 01:45:35;;;;;;;3.08;2.10;;;;;;;20.39;56.39;101513.84;5012770;28;20041;-50
2023/07/06 01:48:07;;;;;;;3.20;1.85;;;;;;;20.40;56.41;101510.16;5007239;28;20050;-50
2023/07/06 01:50:59;;;;;;;1.95;1.52;;;;;;;20.40;56.62;101512.88;5011977;28;20460;-51
2023/07/06 01:53:34;;;;;;;3.47;2.00;;;;;;;20.39;56.34;101509.31;5004813;28;20042;-51
2023/07/06 01:56:07;;;;;;;3.80;1.80;;;;;;;20.37;55.93;101511.31;5014902;28;20062;-47
2023/07/06 01:58:50;;;;;;;2.15;1.80;;;;;;;20.38;56.05;101513.00;5006625;28;20494;-49
2023/07/06 02:01:22;;;;;;;2.50;1.75;;;;;;;20.38;56.19;101520.28;5006888;28;20026;-49
2023/07/06 02:03:50;;;;;;;3.05;2.10;;;;;;;20.35;56.29;101516.00;5005302;28;20050;-48
2023/07/06 02:06:17;;;;;;;2.88;1.70;;;;;;;20.35;56.16;101515.16;5005021;28;20506;-50
2023/07/06 02:08:43;;;;;;;2.45;1.90;;;;;;;20.35;56.27;101509.75;5009344;28;20041;-50
2023/07/06 02:11:14;;;;;;;3.75;1.80;;;;;;;20.34;56.29;101518.88;5008247;28;20022;-51
2023/07/06 02:13:39;;;;;;;2.72;1.50;;;;;;;20.36;56.27;101516.88;5005083;28;20044;-51
2023/07/06 02:16:05;;;;;;;1.80;1.70;;;;;;;20.34;55.82;101511.59;5009845;28;20025;-50
2023/07/06 02:18:31;;;;;;;5.47;2.15;;;;;;;20.33;56.03;101511.75;5004453;28;20034;-49
2023/07/06 02:20:57;;;;;;;4.25;2.00;;;;;;;20.34;55.85;101508.06;5008393;28;20035;-50
2023/07/06 02:23:23;;;;;;;2.88;2.00;;;;;;;20.33;55.94;101509.88;5009773;28;20038;-48
2023/07/06 02:25:48;;;;;;;3.70;1.80;;;;;;;20.33;56.21;101500.91;5007388;28;20029;-50
2023/07/06 02:28:14;;;;;;;3.47;1.60;;;;;;;20.33;56.14;101498.22;5008297;28;20108;-50
2023/07/06 02:30:39;;;;;;;3.58;1.75;;;;;;;20.31;55.77;101503.75;5011157;28;20021;-51
2023/07/06 02:33:05;;;;;;;1.83;1.55;;;;;;;20.33;55.88;101506.31;5014664;28;20038;-50
2023/07/06 02:35:32;;;;;;;3.33;1.88;;;;;;;20.32;55.70;101497.38;5002153;28;20034;-50
2023/07/06 02:37:58;;;;;;;3.67;1.35;;;;;;;20.30;56.06;101497.50;5004754;28;20034;-50
2023/07/06 02:40:23;;;;;;;4.68;1.67;;;;;;;20.30;55.72;101497.50;5006985;28;20050;-49
2023/07/06 02:42:49;;;;;;;2.80;1.30;;;;;;;20.29;55.91;101498.50;5007378;28;20037;-50
2023/07/06 02:45:14;;;;;;;4.22;1.90;;;;;;;20.29;55.63;101503.06;5004907;28;20507;-48
2023/07/06 02:47:41;;;;;;;2.72;1.95;;;;;;;20.29;55.86;101503.06;5007465;28;20091;-52
2023/07/06 02:50:11;;;;;;;3.13;1.88;;;;;;;20.27;55.92;101505.91;5005964;28;20476;-48
2023/07/06 02:52:37;;;;;;;4.93;1.70;;;;;;;20.27;55.41;101508.59;5011872;28;20093;-50
2023/07/06 02:55:04;;;;;;;2.58;1.70;;;;;;;20.26;55.62;101509.63;5008280;28;20032;-48
2023/07/06 02:57:31;;;;;;;2.05;1.48;;;;;;;20.26;55.46;101501.50;5011699;28;20401;-49
2023/07/06 02:59:57;;;;;;;2.78;1.70;;;;;;;20.26;55.82;101506.06;5008405;28;20029;-50
2023/07/06 03:02:23;;;;;;;2.58;1.67;;;;;;;20.26;55.66;101509.63;5005745;28;20038;-49
2023/07/06 03:04:49;;;;;;;3.10;1.70;;;;;;;20.25;55.74;101510.59;5004809;28;20033;-48
2023/07/06 03:07:15;;;;;;;3.92;1.65;;;;;;;20.26;55.46;101511.47;4999454;28;20037;-51
2023/07/06 03:09:42;;;;;;;1.92;1.40;;;;;;;20.25;55.68;101504.34;5012786;28;20044;-52
2023/07/06 03:12:09;;;;;;;4.45;1.60;;;;;;;20.23;55.70;101500.94;5001664;28;20586;-51
2023/07/06 03:14:34;;;;;;;2.75;1.40;;;;;;;20.23;55.51;101507.19;5016348;28;20085;-50
2023/07/06 03:17:00;;;;;;;4.18;1.80;;;;;;;20.22;55.83;101510.91;5011241;28;20057;-51
2023/07/06 03:19:25;;;;;;;3.72;1.83;;;;;;;20.22;55.82;101513.63;5005813;28;20042;-51
2023/07/06 03:21:52;;;;;;;2.75;1.52;;;;;;;20.21;55.48;101511.91;5002965;28;20037;-50
2023/07/06 03:24:18;;;;;;;2.42;1.58;;;;;;;20.21;55.23;101517.31;5003279;28;20502;-50
2023/07/06 03:26:43;;;;;;;5.70;1.85;;;;;;;20.20;55.72;101518.31;5005623;28;20054;-48
2023/07/06 03:29:12;;;;;;;3.92;1.92;;;;;;;20.20;55.33;101523.72;5007870;28;20026;-50
2023/07/06 03:31:37;;;;;;;4.40;2.28;;;;;;;20.20;55.53;101522.84;4999397;28;20025;-51
2023/07/06 03:34:07;;;;;;;5.10;1.75;;;;;;;20.19;55.49;101522.00;5003377;28;20428;-49
2023/07/06 03:36:34;;;;;;;2.65;1.65;;;;;;;20.18;55.69;101525.72;5004772;28;20053;-51
2023/07/06 03:39:01;;;;;;;4.35;1.58;;;;;;;20.18;55.45;101530.25;4999124;28;20037;-51
2023/07/06 03:41:27;;;;;;;5.40;1.95;;;;;;;20.19;55.49;101537.38;5003012;28;20042;-50
2023/07/06 03:43:56;;;;;;;2.38;1.63;;;;;;;20.18;55.32;101539.25;5003861;28;20378;-51
2023/07/06 03:46:23;;;;;;;3.95;2.00;;;;;;;20.17;55.64;101533.97;5003920;28;20076;-51
2023/07/06 03:48:49;;;;;;;2.55;1.45;;;;;;;20.17;55.61;101533.97;5008292;28;20035;-48
2023/07/06 03:51:14;;;;;;;3.47;1.80;;;;;;;20.16;55.68;101538.50;5000032;28;20516;-50
2023/07/06 03:53:40;;;;;;;5.40;1.80;;;;;;;20.16;55.08;101541.22;5007434;28;20396;-51
2023/07/06 03:56:07;;;;;;;2.15;1.42;;;;;;;20.15;55.49;101542.22;5007067;28;20412;-51
2023/07/06 03:58:34;;;;;;;4.55;1.45;;;;;;;20.14;55.25;101551.31;5007414;28;20554;-48
2023/07/06 04:00:59;;;;;;;3.00;1.58;;;;;;;20.13;55.22;101549.63;5005192;28;20486;-50
2023/07/06 04:03:32;;;;;;;3.15;1.73;;;;;;;20.14;55.34;101545.06;5008185;28;20034;-50
2023/07/06 04:06:01;;;;;;;3.08;1.80;;;;;;;20.14;55.45;101550.47;5002882;28;20025;-48
2023/07/06 04:08:26;;;;;;;5.22;1.63;;;;;;;20.15;55.17;101555.75;5004926;28;20034;-48
2023/07/06 04:10:51;;;;;;;4.97;2.00;;;;;;;20.13;55.50;101548.78;5003832;28;20376;-46
2023/07/06 04:13:17;;;;;;;3.15;1.60;;;;;;;20.13;55.21;101543.38;5002460;28;20028;-50
2023/07/06 04:15:46;;;;;;;4.13;1.85;;;;;;;20.13;55.42;101560.44;5020252;28;20057;-48
2023/07/06 04:18:12;;;;;;;5.32;1.80;;;;;;;20.11;55.51;101563.28;5009709;28;20082;-50
2023/07/06 04:20:37;;;;;;;1.85;1.50;;;;;;;20.11;55.29;101557.03;5008920;28;20030;-48
2023/07/06 04:23:04;;;;;;;3.65;1.98;;;;;;;20.10;55.51;101558.00;5008279;28;20037;-51
2023/07/06 04:25:32;;;;;;;5.82;1.98;;;;;;;20.11;55.29;101562.44;5008909;28;20034;-50
2023/07/06 04:28:02;;;;;;;3.47;1.83;;;;;;;20.11;55.53;101559.75;5001349;28;20038;-48
2023/07/06 04:30:29;;;;;;;3.72;1.92;;;;;;;20.11;55.33;101557.03;5005581;28;20033;-51
2023/07/06 04:32:55;;;;;;;4.30;2.03;;;;;;;20.10;55.12;101560.72;4996453;28;20030;-48
2023/07/06 04:35:22;;;;;;;4.20;1.83;;;;;;;20.10;55.26;101566.13;5007617;28;20056;-48
2023/07/06 04:37:49;;;;;;;3.10;1.98;;;;;;;20.10;55.59;101571.53;5004219;28;20034;-50
2023/07/06 04:40:18;;;;;;;4.53;2.15;;;;;;;20.09;55.23;101567.97;5002250;28;20113;-50
2023/07/06 04:42:46;;;;;;;5.07;2.20;;;;;;;20.09;55.26;101578.78;5009889;28;20038;-50
2023/07/06 04:45:12;;;;;;;3.47;1.75;;;;;;;20.09;55.32;101572.53;5017212;28;20168;-50
2023/07/06 04:47:39;;;;;;;3.20;1.80;;;;;;;20.09;55.30;101575.25;5004798;28;20062;-50
2023/07/06 04:50:09;;;;;;;3.38;2.10;;;;;;;20.09;55.32;101583.38;5005028;28;20037;-49
2023/07/06 04:52:37;;;;;;;4.57;2.33;;;;;;;20.07;55.21;101580.78;4999679;28;20138;-50
2023/07/06 04:55:08;;;;;;;4.97;2.25;;;;;;;20.07;55.64;101574.53;5004275;28;20431;-48
2023/07/06 04:57:35;;;;;;;4.97;2.40;;;;;;;20.07;55.36;101582.66;5006105;28;20093;-49
2023/07/06 05:00:01;;;;;;;5.43;2.42;;;;;;;20.07;55.68;101575.38;5016678;28;20026;-50
2023/07/06 05:02:30;;;;;;;4.88;2.45;;;;;;;20.07;55.68;101574.53;5013308;28;20049;-51
2023/07/06 05:04:56;;;;;;;4.40;1.88;;;;;;;20.07;55.54;101583.50;5010370;28;20475;-50
2023/07/06 05:07:22;;;;;;;5.38;1.98;;;;;;;20.08;55.25;101579.78;5006971;28;20487;-51
2023/07/06 05:09:49;;;;;;;4.53;2.03;;;;;;;20.08;55.55;101584.34;5001974;28;20026;-48
2023/07/06 05:12:14;;;;;;;4.70;2.47;;;;;;;20.08;55.33;101573.53;5008259;28;20042;-50
2023/07/06 05:14:40;;;;;;;4.22;2.10;;;;;;;20.08;55.32;101576.22;5006852;28;20522;-50
2023/07/06 05:17:05;;;;;;;3.65;2.10;;;;;;;20.09;55.36;101580.66;5005876;28;20085;-47
2023/07/06 05:19:32;;;;;;;3.72;2.20;;;;;;;20.08;55.19;101578.94;5009264;28;20109;-47
2023/07/06 05:21:58;;;;;;;5.70;2.03;;;;;;;20.09;54.92;101586.06;5006948;28;20055;-50
2023/07/06 05:24:26;;;;;;;3.80;2.30;;;;;;;20.08;55.03;101590.59;5012109;28;20191;-51
2023/07/06 05:26:52;;;;;;;4.13;2.35;;;;;;;20.09;55.03;101591.47;5015728;28;20030;-50
2023/07/06 05:29:17;;;;;;;4.90;2.60;;;;;;;20.10;54.93;101587.75;5007344;28;20045;-51
2023/07/06 05:31:45;;;;;;;5.63;2.40;;;;;;;20.10;55.38;101585.06;5005712;28;20041;-51
2023/07/06 05:34:10;;;;;;;6.03;2.25;;;;;;;20.10;55.35;101594.03;5009686;28;20103;-50
2023/07/06 05:36:36;;;;;;;4.90;2.50;;;;;;;20.10;54.90;101594.03;5008123;28;20029;-50
2023/07/06 05:39:05;;;;;;;4.65;2.40;;;;;;;20.09;55.00;101595.03;5010957;28;20029;-50
2023/07/06 05:41:31;;;;;;;5.10;2.42;;;;;;;20.11;54.96;101594.88;5014899;28;20847;-46
2023/07/06 05:43:56;;;;;;;4.22;2.60;;;;;;;20.13;55.15;101600.16;4999067;28;20149;-48
2023/07/06 05:46:23;;;;;;;3.90;2.20;;;;;;;20.11;55.23;101600.28;5004706;28;20484;-50
2023/07/06 05:48:49;;;;;;;5.45;2.22;;;;;;;20.12;55.11;101599.28;5004654;28;20069;-51
2023/07/06 05:51:15;;;;;;;4.57;2.50;;;;;;;20.13;55.20;101594.75;5012935;28;20086;-48
2023/07/06 05:53:40;;;;;;;6.18;2.30;;;;;;;20.12;55.14;101596.56;5005510;28;20041;-50
2023/07/06 05:56:05;;;;;;;7.68;2.40;;;;;;;20.14;55.27;101600.00;5002425;28;20168;-51
2023/07/06 05:58:31;;;;;;;4.63;2.80;;;;;;;20.14;55.58;101599.13;5011233;28;20586;-51
2023/07/06 06:00:58;;;;;;;6.53;3.10;;;;;;;20.14;55.49;101605.41;5003234;28;20038;-47
2023/07/06 06:03:23;;;;;;;6.88;2.78;;;;;;;20.14;55.42;101609.97;4999698;28;20030;-52
2023/07/06 06:05:50;;;;;;;8.35;3.10;;;;;;;20.13;55.59;101609.09;5009598;28;20037;-51
2023/07/06 06:08:18;;;;;;;7.13;3.28;;;;;;;20.14;55.88;101607.25;4999130;28;20161;-51
2023/07/06 06:10:44;;;;;;;9.52;3.67;;;;;;;20.14;56.09;101608.09;5006519;28;20135;-51
2023/07/06 06:13:10;;;;;;;7.97;3.85;;;;;;;20.14;55.89;101620.78;5001907;28;20062;-50
2023/07/06 06:15:36;;;;;;;6.65;3.35;;;;;;;20.14;55.89;101613.50;5006759;28;20128;-49
2023/07/06 06:18:02;;;;;;;8.38;3.88;;;;;;;20.14;55.53;101610.81;5009965;28;20155;-48
2023/07/06 06:20:28;;;;;;;6.82;3.47;;;;;;;20.13;55.50;101619.94;5007218;28;20414;-47
2023/07/06 06:22:54;;;;;;;8.77;3.78;;;;;;;20.15;55.50;101620.63;5003491;28;20119;-49
2023/07/06 06:25:19;;;;;;;7.25;3.47;;;;;;;20.15;55.33;101619.78;5009662;28;20113;-48
2023/07/06 06:27:46;;;;;;;9.35;3.42;;;;;;;20.17;55.50;101624.06;5003281;28;20034;-51
2023/07/06 06:30:13;;;;;;;7.95;4.03;;;;;;;20.16;55.68;101622.31;5006963;28;20030;-48
2023/07/06 06:32:39;;;;;;;7.80;3.83;;;;;;;20.17;55.55;101626.75;5005676;28;20396;-49
2023/07/06 06:35:19;;;;;;;9.60;4.07;;;;;;;20.19;55.41;101632.88;5003817;28;20041;-51
2023/07/06 06:37:45;;;;;;;5.80;3.10;;;;;;;20.18;55.26;101633.00;5005432;28;20419;-48
2023/07/06 06:40:10;;;;;;;7.97;3.33;;;;;;;20.18;55.29;101638.41;5006447;28;20029;-48
2023/07/06 06:42:39;;;;;;;8.40;3.65;;;;;;;20.18;55.25;101644.69;5004750;28;20160;-47
2023/07/06 06:45:05;;;;;;;8.23;3.58;;;;;;;20.19;55.81;101649.09;5005315;28;20049;-48
2023/07/06 06:47:32;;;;;;;7.50;3.50;;;;;;;20.19;55.50;101651.81;5004180;28;20041;-51
2023/07/06 06:49:57;;;;;;;7.47;3.75;;;;;;;20.19;55.18;101640.97;5002422;28;20034;-50
2023/07/06 06:52:25;;;;;;;10.20;3.63;;;;;;;20.19;55.38;101654.50;5001512;28;20054;-49
2023/07/06 06:54:51;;;;;;;5.38;3.15;;;;;;;20.18;55.42;101644.69;5007290;28;20436;-49
2023/07/06 06:57:16;;;;;;;7.10;3.47;;;;;;;20.20;55.52;101658.06;5005128;28;20030;-49
2023/07/06 06:59:43;;;;;;;7.47;3.50;;;;;;;20.19;55.66;101654.50;5005294;28;20018;-50
2023/07/06 07:02:09;;;;;;;7.43;3.97;;;;;;;20.19;55.68;101657.22;5005208;28;20038;-49
2023/07/06 07:04:34;;;;;;;5.28;3.58;;;;;;;20.20;55.65;101664.34;4999247;28;20089;-49
2023/07/06 07:07:03;;;;;;;9.60;3.90;;;;;;;20.21;55.50;101657.06;5001704;28;20441;-47
2023/07/06 07:09:29;;;;;;;6.88;3.75;;;;;;;20.20;55.20;101664.34;5003785;28;20084;-50
2023/07/06 07:11:54;;;;;;;8.13;4.00;;;;;;;20.21;55.91;101666.03;5000666;28;20029;-48
2023/07/06 07:14:20;;;;;;;4.95;3.40;;;;;;;20.22;55.83;101667.75;5004700;28;20060;-47
2023/07/06 07:16:45;;;;;;;5.43;3.90;;;;;;;20.23;55.75;101671.31;5002382;28;20383;-50
2023/07/06 07:19:10;;;;;;;6.25;4.20;;;;;;;20.22;55.92;101667.75;5011616;28;20417;-49
2023/07/06 07:21:36;;;;;;;11.05;4.97;;;;;;;20.22;56.09;101677.69;5005620;28;20426;-48
2023/07/06 07:24:01;;;;;;;8.20;4.18;;;;;;;20.23;56.07;101679.41;5003586;28;20033;-48
2023/07/06 07:26:27;;;;;;;9.73;4.78;;;;;;;20.23;55.86;101682.13;5010856;28;20042;-49
2023/07/06 07:28:53;;;;;;;9.02;4.28;;;;;;;20.22;56.11;101681.28;5001357;28;20037;-49
2023/07/06 07:31:20;;;;;;;5.57;4.13;;;;;;;20.23;56.36;101685.66;5007910;28;20033;-46
2023/07/06 07:33:46;;;;;;;6.90;4.40;;;;;;;20.23;56.78;101682.13;5002597;28;20034;-49
2023/07/06 07:36:13;;;;;;;9.55;4.53;;;;;;;20.24;56.34;101681.13;5005555;28;20037;-49
2023/07/06 07:38:39;;;;;;;7.93;4.35;;;;;;;20.24;56.46;101692.81;5001201;28;20107;-49
2023/07/06 07:41:07;;;;;;;9.32;4.40;;;;;;;20.24;56.13;101698.22;5006833;28;20680;-48
2023/07/06 07:43:35;;;;;;;8.75;4.78;;;;;;;20.25;56.52;101688.25;5006000;28;20472;-51
2023/07/06 07:46:06;;;;;;;5.78;4.47;;;;;;;20.25;56.34;101689.09;5006559;28;20030;-48
2023/07/06 07:48:33;;;;;;;7.80;4.20;;;;;;;20.25;56.32;101691.78;5004962;28;20034;-49
2023/07/06 07:51:03;;;;;;;6.60;4.10;;;;;;;20.25;56.39;101702.59;5007762;28;20363;-50
2023/07/06 07:53:36;;;;;;;9.07;4.88;;;;;;;20.25;56.45;101693.66;5002498;28;20062;-47
2023/07/06 07:56:04;;;;;;;9.93;4.68;;;;;;;20.24;56.75;101692.81;5005394;28;20412;-51
2023/07/06 07:58:30;;;;;;;8.90;4.43;;;;;;;20.25;56.21;101691.78;5005191;28;20038;-49
2023/07/06 08:00:56;;;;;;;8.05;5.07;;;;;;;20.24;56.27;101692.81;5008164;28;20044;-51
2023/07/06 08:03:25;;;;;;;9.18;4.63;;;;;;;20.24;56.50;101703.63;5008283;28;20116;-48
2023/07/06 08:05:52;;;;;;;7.53;5.20;;;;;;;20.25;56.32;101694.50;5004911;28;20532;-50
2023/07/06 08:08:18;;;;;;;10.65;4.68;;;;;;;20.26;56.22;101700.78;5003128;28;20026;-48
2023/07/06 08:10:45;;;;;;;11.07;5.45;;;;;;;20.26;56.55;101696.22;5007320;28;20042;-50
2023/07/06 08:13:10;;;;;;;8.43;4.30;;;;;;;20.26;56.61;101693.50;5007439;28;20038;-47
2023/07/06 08:15:37;;;;;;;9.15;5.20;;;;;;;20.27;56.42;101697.91;5008856;28;20030;-49
2023/07/06 08:18:03;;;;;;;8.43;4.78;;;;;;;20.27;56.36;101691.66;5004114;28;20524;-49
2023/07/06 08:20:33;;;;;;;11.35;5.00;;;;;;;20.28;56.56;101694.22;5005340;28;20069;-50
2023/07/06 08:23:01;;;;;;;8.68;5.03;;;;;;;20.28;56.71;101694.22;5005955;28;20038;-50
2023/07/06 08:25:28;;;;;;;7.28;4.32;;;;;;;20.28;56.56;101699.63;5002234;28;20050;-51
2023/07/06 08:27:57;;;;;;;8.55;5.20;;;;;;;20.29;56.43;101701.31;5005975;28;20113;-50
2023/07/06 08:30:23;;;;;;;6.57;4.40;;;;;;;20.30;56.61;101711.16;5007238;28;20070;-50
2023/07/06 08:32:52;;;;;;;9.85;5.40;;;;;;;20.31;56.67;101698.50;5003499;28;20407;-49
2023/07/06 08:35:17;;;;;;;10.88;5.30;;;;;;;20.31;56.28;101706.59;5009556;28;20061;-49
2023/07/06 08:37:46;;;;;;;9.25;5.20;;;;;;;20.33;56.84;101709.16;5010028;28;20061;-51
2023/07/06 08:40:14;;;;;;;9.38;5.03;;;;;;;20.33;56.95;101718.13;5011101;28;20547;-49
2023/07/06 08:42:43;;;;;;;11.02;5.28;;;;;;;20.33;57.25;101717.28;5009425;28;20384;-50
2023/07/06 08:45:19;;;;;;;7.97;4.95;;;;;;;20.35;57.47;101720.69;5011111;28;20472;-51
2023/07/06 08:47:46;;;;;;;8.93;4.95;;;;;;;20.36;57.75;101722.44;5015428;28;20533;-48
2023/07/06 08:50:12;;;;;;;9.52;5.00;;;;;;;20.36;57.45;101722.44;5013967;28;20492;-48
2023/07/06 08:52:38;;;;;;;8.38;4.95;;;;;;;20.38;58.02;101725.84;5009757;28;20519;-50
2023/07/06 08:55:16;;;;;;;10.70;4.80;;;;;;;20.38;57.37;101725.84;5009617;28;20046;-50
2023/07/06 08:57:46;;;;;;;7.95;4.68;;;;;;;20.38;57.71;101729.41;5016129;28;20033;-49
2023/07/06 09:00:25;;;;;;;7.20;4.95;;;;;;;20.39;57.15;101735.66;5011884;28;20530;-51
2023/07/06 09:02:53;;;;;;;10.45;4.95;;;;;;;20.39;58.01;101730.25;5008882;28;20080;-47
2023/07/06 09:05:20;;;;;;;9.63;5.32;;;;;;;20.40;57.80;101726.56;5008407;28;20380;-52
2023/07/06 09:07:47;;;;;;;9.43;5.15;;;;;;;20.41;57.91;101730.94;5002087;28;20038;-49
2023/07/06 09:10:23;;;;;;;11.93;5.82;;;;;;;20.41;57.74;101730.94;5011822;28;20034;-50
2023/07/06 09:12:53;;;;;;;9.38;5.25;;;;;;;20.41;58.21;101729.13;5009937;28;20029;-48
2023/07/06 09:15:25;;;;;;;8.48;5.20;;;;;;;20.43;58.16;101734.41;5011394;28;20392;-49
2023/07/06 09:17:50;;;;;;;9.38;5.68;;;;;;;20.42;58.15;101728.09;5010872;28;20025;-49
2023/07/06 09:20:18;;;;;;;8.63;5.05;;;;;;;20.43;57.95;101735.25;5008251;28;20049;-47
2023/07/06 09:22:48;;;;;;;10.57;5.43;;;;;;;20.44;58.12;101736.09;5010446;28;20061;-45
2023/07/06 09:25:21;;;;;;;7.35;4.97;;;;;;;20.44;57.95;101730.69;5015783;28;20129;-46
2023/07/06 09:27:48;;;;;;;8.35;5.55;;;;;;;20.45;57.70;101727.84;5008717;28;20033;-47
2023/07/06 09:30:36;;;;;;;10.70;5.53;;;;;;;20.47;57.77;101731.25;5005878;28;20076;-45
2023/07/06 09:33:25;;;;;;;8.60;5.35;;;;;;;20.48;58.07;101730.25;5009424;28;20025;-50
2023/07/06 09:35:53;;;;;;;9.18;5.15;;;;;;;20.47;58.19;101730.41;5004264;28;20026;-49
2023/07/06 09:38:19;;;;;;;8.82;5.55;;;;;;;20.47;57.95;101727.72;5014161;28;20032;-50
2023/07/06 09:40:46;;;;;;;8.30;5.30;;;;;;;20.47;57.95;101733.13;5007962;28;20041;-50
2023/07/06 09:43:22;;;;;;;9.32;4.88;;;;;;;20.49;58.17;101744.66;5010971;28;20384;-50
2023/07/06 09:45:51;;;;;;;10.05;4.80;;;;;;;20.48;58.00;101738.34;5003540;28;20054;-47
2023/07/06 09:48:26;;;;;;;9.10;5.13;;;;;;;20.49;58.16;101741.94;5015862;28;20476;-47
2023/07/06 09:50:55;;;;;;;9.00;5.20;;;;;;;20.48;58.08;101740.22;5010042;28;20041;-48
2023/07/06 09:53:31;;;;;;;10.68;4.53;;;;;;;20.49;57.80;101742.78;5007879;28;20042;-47
2023/07/06 09:55:56;;;;;;;8.57;4.68;;;;;;;20.49;58.12;101744.66;5004407;28;20113;-48
2023/07/06 09:58:25;;;;;;;8.85;4.82;;;;;;;20.50;57.74;101743.63;5005582;28;20136;-49
2023/07/06 10:01:05;;;;;;;7.70;4.40;;;;;;;20.51;57.69;101739.94;5008556;28;20040;-49
2023/07/06 10:03:49;;;;;;;10.85;4.57;;;;;;;20.50;58.08;101736.41;5006112;28;20403;-49
2023/07/06 10:06:19;;;;;;;6.43;4.78;;;;;;;20.50;57.81;101744.50;5002356;28;20056;-50
2023/07/06 10:09:08;;;;;;;9.23;4.50;;;;;;;20.53;57.61;101735.25;5002984;28;20061;-49
2023/07/06 10:11:51;;;;;;;10.10;3.83;;;;;;;20.52;57.68;101736.22;5009160;28;20128;-46
2023/07/06 10:14:33;;;;;;;8.70;4.07;;;;;;;20.55;58.02;101737.81;5007528;28;20018;-46
2023/07/06 10:17:10;;;;;;;9.25;4.72;;;;;;;20.53;58.22;101729.84;5008319;28;20030;-47
2023/07/06 10:19:40;;;;;;;10.73;4.85;;;;;;;20.55;58.29;101722.44;5007990;28;20028;-48
2023/07/06 10:22:13;;;;;;;4.55;3.72;;;;;;;20.55;58.08;101717.03;5011506;28;20498;-46
2023/07/06 10:24:45;;;;;;;7.35;4.00;;;;;;;20.56;58.03;101723.28;5010805;28;20022;-47
2023/07/06 10:27:18;;;;;;;10.35;4.00;;;;;;;20.56;58.35;101724.16;5009975;28;20084;-50
2023/07/06 10:29:48;;;;;;;10.25;4.15;;;;;;;20.57;58.33;101728.56;5008782;28;20064;-47
2023/07/06 10:32:24;;;;;;;7.20;3.67;;;;;;;20.58;58.19;101724.88;5007670;28;20088;-50
2023/07/06 10:35:01;;;;;;;8.13;3.58;;;;;;;20.60;58.10;101724.72;5003846;28;20114;-49
2023/07/06 10:37:28;;;;;;;10.05;4.05;;;;;;;20.60;58.04;101722.03;5002506;28;20034;-49
2023/07/06 10:40:00;;;;;;;5.70;3.97;;;;;;;20.59;57.87;101720.31;5014903;28;20107;-48
2023/07/06 10:42:32;;;;;;;9.80;4.32;;;;;;;20.59;57.60;101721.16;5003185;28;20034;-49
2023/07/06 10:45:02;;;;;;;6.30;3.25;;;;;;;20.61;57.85;101726.47;5006461;28;20058;-49
2023/07/06 10:47:43;;;;;;;6.78;3.35;;;;;;;20.64;57.47;101718.91;5004904;28;20853;-49
2023/07/06 10:50:08;;;;;;;5.97;2.75;;;;;;;20.63;57.79;101728.00;5006394;28;20041;-47
2023/07/06 10:52:40;;;;;;;8.55;3.30;;;;;;;20.62;57.50;101723.63;5003442;28;20104;-47
2023/07/06 10:55:35;;;;;;;6.03;3.08;;;;;;;20.66;57.49;101730.44;5001982;28;20033;-49
2023/07/06 10:58:32;;;;;;;5.65;2.80;;;;;;;20.68;57.41;101723.03;5006484;28;20377;-48
2023/07/06 11:01:03;;;;;;;5.10;2.53;;;;;;;20.66;57.58;101726.88;5005158;28;20050;-50
2023/07/06 11:03:31;;;;;;;7.82;2.72;;;;;;;20.66;57.25;101725.03;5004199;28;20025;-49
2023/07/06 11:06:10;;;;;;;5.63;2.30;;;;;;;20.67;57.41;101729.44;5002762;28;20532;-46
2023/07/06 11:09:14;;;;;;;6.32;2.75;;;;;;;20.69;56.97;101740.13;5006689;28;20038;-49
2023/07/06 11:12:01;;;;;;;4.43;2.53;;;;;;;20.69;56.35;101738.28;5008606;28;20088;-47
2023/07/06 11:14:39;;;;;;;5.32;2.45;;;;;;;20.70;56.96;101741.84;5011869;28;20033;-50
2023/07/06 11:17:28;;;;;;;8.90;2.33;;;;;;;20.69;56.75;101741.00;5003057;28;20034;-47
2023/07/06 11:20:01;;;;;;;5.65;2.58;;;;;;;20.69;56.97;101741.00;5003827;28;20021;-50
2023/07/06 11:22:28;;;;;;;7.50;3.00;;;;;;;20.68;56.38;101743.84;4999452;28;20017;-50
2023/07/06 11:25:03;;;;;;;5.22;2.25;;;;;;;20.69;56.56;101743.69;5011826;28;20080;-49
2023/07/06 11:27:35;;;;;;;7.40;2.63;;;;;;;20.68;56.71;101749.25;5002576;28;20033;-48
2023/07/06 11:30:06;;;;;;;4.78;2.67;;;;;;;20.68;56.60;101755.50;5005463;28;20030;-49
2023/07/06 11:33:10;;;;;;;8.40;2.40;;;;;;;20.70;56.91;101758.94;5004848;28;20168;-51
2023/07/06 11:35:54;;;;;;;6.18;2.38;;;;;;;20.70;56.99;101749.97;5004424;28;20122;-47